sensor_id;sensor_type;location;lat;lon;timestamp;P1;durP1;ratioP1;P2;durP2;ratioP2
23496;SDS011;11925;48.122;11.560;2024-01-16T00:01:25;3.60;;;1.60;;
23496;SDS011;11925;48.122;11.560;2024-01-16T00:03:53;3.28;;;1.83;;
23496;SDS011;11925;48.122;11.560;2024-01-16T00:06:23;3.83;;;1.60;;
23496;SDS011;11925;48.122;11.560;2024-01-16T00:08:51;2.97;;;1.35;;
23496;SDS011;11925;48.122;11.560;2024-01-16T00:11:20;3.78;;;1.50;;
23496;SDS011;11925;48.122;11.560;2024-01-16T00:13:48;3.17;;;1.58;;
23496;SDS011;11925;48.122;11.560;2024-01-16T00:16:17;4.03;;;1.65;;
23496;SDS011;11925;48.122;11.560;2024-01-16T00:18:45;3.20;;;1.60;;
23496;SDS011;11925;48.122;11.560;2024-01-16T00:21:14;4.68;;;2.05;;
23496;SDS011;11925;48.122;11.560;2024-01-16T00:23:44;2.85;;;1.55;;
23496;SDS011;11925;48.122;11.560;2024-01-16T00:26:19;3.60;;;1.95;;
23496;SDS011;11925;48.122;11.560;2024-01-16T00:28:48;3.83;;;1.63;;
23496;SDS011;11925;48.122;11.560;2024-01-16T00:31:16;3.03;;;1.48;;
23496;SDS011;11925;48.122;11.560;2024-01-16T00:33:46;3.30;;;1.48;;
23496;SDS011;11925;48.122;11.560;2024-01-16T00:36:15;3.05;;;1.75;;
23496;SDS011;11925;48.122;11.560;2024-01-16T00:38:45;2.92;;;1.60;;
23496;SDS011;11925;48.122;11.560;2024-01-16T00:41:14;3.85;;;1.55;;
23496;SDS011;11925;48.122;11.560;2024-01-16T00:43:43;9.10;;;1.90;;
23496;SDS011;11925;48.122;11.560;2024-01-16T00:46:12;3.15;;;1.40;;
23496;SDS011;11925;48.122;11.560;2024-01-16T00:48:40;1.77;;;1.30;;
23496;SDS011;11925;48.122;11.560;2024-01-16T00:51:09;2.60;;;1.30;;
23496;SDS011;11925;48.122;11.560;2024-01-16T00:53:39;2.58;;;1.23;;
23496;SDS011;11925;48.122;11.560;2024-01-16T00:56:10;2.53;;;1.40;;
23496;SDS011;11925;48.122;11.560;2024-01-16T00:58:39;3.42;;;1.58;;
23496;SDS011;11925;48.122;11.560;2024-01-16T01:01:08;3.55;;;1.55;;
23496;SDS011;11925;48.122;11.560;2024-01-16T01:03:36;2.90;;;1.63;;
23496;SDS011;11925;48.122;11.560;2024-01-16T01:06:05;4.32;;;1.50;;
23496;SDS011;11925;48.122;11.560;2024-01-16T01:08:33;2.42;;;1.35;;
23496;SDS011;11925;48.122;11.560;2024-01-16T01:11:02;3.10;;;1.20;;
23496;SDS011;11925;48.122;11.560;2024-01-16T01:13:32;3.30;;;1.45;;
23496;SDS011;11925;48.122;11.560;2024-01-16T01:16:01;2.20;;;1.23;;
23496;SDS011;11925;48.122;11.560;2024-01-16T01:18:30;3.42;;;1.55;;
23496;SDS011;11925;48.122;11.560;2024-01-16T01:20:58;2.58;;;1.30;;
23496;SDS011;11925;48.122;11.560;2024-01-16T01:23:27;2.78;;;1.35;;
23496;SDS011;11925;48.122;11.560;2024-01-16T01:25:55;2.58;;;1.25;;
23496;SDS011;11925;48.122;11.560;2024-01-16T01:28:24;2.90;;;1.20;;
23496;SDS011;11925;48.122;11.560;2024-01-16T01:30:54;3.80;;;1.58;;
23496;SDS011;11925;48.122;11.560;2024-01-16T01:33:22;2.72;;;1.42;;
23496;SDS011;11925;48.122;11.560;2024-01-16T01:35:51;1.92;;;1.00;;
23496;SDS011;11925;48.122;11.560;2024-01-16T01:38:20;1.88;;;0.95;;
23496;SDS011;11925;48.122;11.560;2024-01-16T01:40:48;3.17;;;1.50;;
23496;SDS011;11925;48.122;11.560;2024-01-16T01:43:17;2.40;;;1.33;;
23496;SDS011;11925;48.122;11.560;2024-01-16T01:45:47;2.38;;;1.30;;
23496;SDS011;11925;48.122;11.560;2024-01-16T01:48:30;4.40;;;1.23;;
23496;SDS011;11925;48.122;11.560;2024-01-16T01:50:59;2.78;;;1.27;;
23496;SDS011;11925;48.122;11.560;2024-01-16T01:53:30;2.83;;;1.45;;
23496;SDS011;11925;48.122;11.560;2024-01-16T01:56:01;3.42;;;1.30;;
23496;SDS011;11925;48.122;11.560;2024-01-16T01:58:33;2.55;;;1.20;;
23496;SDS011;11925;48.122;11.560;2024-01-16T02:01:06;2.25;;;1.10;;
23496;SDS011;11925;48.122;11.560;2024-01-16T02:03:36;2.40;;;1.15;;
23496;SDS011;11925;48.122;11.560;2024-01-16T02:06:08;2.05;;;1.10;;
23496;SDS011;11925;48.122;11.560;2024-01-16T02:08:38;2.78;;;1.40;;
23496;SDS011;11925;48.122;11.560;2024-01-16T02:11:07;2.65;;;1.23;;
23496;SDS011;11925;48.122;11.560;2024-01-16T02:13:36;2.63;;;1.58;;
23496;SDS011;11925;48.122;11.560;2024-01-16T02:16:06;3.13;;;1.48;;
23496;SDS011;11925;48.122;11.560;2024-01-16T02:18:45;2.83;;;1.23;;
23496;SDS011;11925;48.122;11.560;2024-01-16T02:21:15;2.63;;;1.17;;
23496;SDS011;11925;48.122;11.560;2024-01-16T02:23:47;2.97;;;1.20;;
23496;SDS011;11925;48.122;11.560;2024-01-16T02:26:17;2.72;;;1.10;;
23496;SDS011;11925;48.122;11.560;2024-01-16T02:28:46;2.33;;;1.20;;
23496;SDS011;11925;48.122;11.560;2024-01-16T02:31:15;2.38;;;1.23;;
23496;SDS011;11925;48.122;11.560;2024-01-16T02:33:44;2.17;;;1.13;;
23496;SDS011;11925;48.122;11.560;2024-01-16T02:36:13;2.95;;;1.30;;
23496;SDS011;11925;48.122;11.560;2024-01-16T02:38:42;3.22;;;1.42;;
23496;SDS011;11925;48.122;11.560;2024-01-16T02:41:15;1.58;;;1.10;;
23496;SDS011;11925;48.122;11.560;2024-01-16T02:46:12;2.65;;;1.23;;
23496;SDS011;11925;48.122;11.560;2024-01-16T02:48:41;4.10;;;1.30;;
23496;SDS011;11925;48.122;11.560;2024-01-16T02:51:10;3.28;;;1.20;;
23496;SDS011;11925;48.122;11.560;2024-01-16T02:53:39;2.30;;;1.25;;
23496;SDS011;11925;48.122;11.560;2024-01-16T02:56:08;2.67;;;1.38;;
23496;SDS011;11925;48.122;11.560;2024-01-16T02:58:38;4.32;;;1.55;;
23496;SDS011;11925;48.122;11.560;2024-01-16T03:01:07;3.08;;;1.40;;
23496;SDS011;11925;48.122;11.560;2024-01-16T03:03:35;2.15;;;1.27;;
23496;SDS011;11925;48.122;11.560;2024-01-16T03:06:04;3.17;;;1.33;;
23496;SDS011;11925;48.122;11.560;2024-01-16T03:08:33;3.78;;;1.15;;
23496;SDS011;11925;48.122;11.560;2024-01-16T03:11:01;3.88;;;1.50;;
23496;SDS011;11925;48.122;11.560;2024-01-16T03:13:30;4.95;;;1.38;;
23496;SDS011;11925;48.122;11.560;2024-01-16T03:16:00;3.03;;;1.30;;
23496;SDS011;11925;48.122;11.560;2024-01-16T03:18:29;1.58;;;1.10;;
23496;SDS011;11925;48.122;11.560;2024-01-16T03:20:58;2.10;;;1.10;;
23496;SDS011;11925;48.122;11.560;2024-01-16T03:23:27;2.53;;;1.05;;
23496;SDS011;11925;48.122;11.560;2024-01-16T03:25:55;2.50;;;1.25;;
23496;SDS011;11925;48.122;11.560;2024-01-16T03:28:25;3.00;;;1.30;;
23496;SDS011;11925;48.122;11.560;2024-01-16T03:30:53;2.38;;;1.60;;
23496;SDS011;11925;48.122;11.560;2024-01-16T03:33:23;3.15;;;1.10;;
23496;SDS011;11925;48.122;11.560;2024-01-16T03:35:52;2.55;;;1.27;;
23496;SDS011;11925;48.122;11.560;2024-01-16T03:38:20;3.75;;;1.63;;
23496;SDS011;11925;48.122;11.560;2024-01-16T03:40:49;4.07;;;1.70;;
23496;SDS011;11925;48.122;11.560;2024-01-16T03:43:18;3.70;;;1.42;;
23496;SDS011;11925;48.122;11.560;2024-01-16T03:45:46;3.00;;;1.50;;
23496;SDS011;11925;48.122;11.560;2024-01-16T03:48:14;3.05;;;1.42;;
23496;SDS011;11925;48.122;11.560;2024-01-16T03:50:45;3.55;;;1.60;;
23496;SDS011;11925;48.122;11.560;2024-01-16T03:53:14;2.33;;;1.30;;
23496;SDS011;11925;48.122;11.560;2024-01-16T03:55:42;2.65;;;1.20;;
23496;SDS011;11925;48.122;11.560;2024-01-16T03:58:11;2.83;;;1.60;;
23496;SDS011;11925;48.122;11.560;2024-01-16T04:00:40;2.70;;;1.35;;
23496;SDS011;11925;48.122;11.560;2024-01-16T04:03:08;3.03;;;1.40;;
23496;SDS011;11925;48.122;11.560;2024-01-16T04:05:37;2.72;;;1.40;;
23496;SDS011;11925;48.122;11.560;2024-01-16T04:08:08;2.70;;;1.55;;
23496;SDS011;11925;48.122;11.560;2024-01-16T04:10:36;4.30;;;1.65;;
23496;SDS011;11925;48.122;11.560;2024-01-16T04:13:05;3.75;;;1.63;;
23496;SDS011;11925;48.122;11.560;2024-01-16T04:15:33;2.97;;;1.33;;
23496;SDS011;11925;48.122;11.560;2024-01-16T04:18:05;3.13;;;1.50;;
23496;SDS011;11925;48.122;11.560;2024-01-16T04:20:35;4.05;;;1.80;;
23496;SDS011;11925;48.122;11.560;2024-01-16T04:23:04;3.35;;;1.40;;
23496;SDS011;11925;48.122;11.560;2024-01-16T04:25:33;2.78;;;1.50;;
23496;SDS011;11925;48.122;11.560;2024-01-16T04:28:02;2.00;;;1.27;;
23496;SDS011;11925;48.122;11.560;2024-01-16T04:30:31;3.97;;;1.95;;
23496;SDS011;11925;48.122;11.560;2024-01-16T04:33:00;5.07;;;1.90;;
23496;SDS011;11925;48.122;11.560;2024-01-16T04:35:28;2.72;;;1.40;;
23496;SDS011;11925;48.122;11.560;2024-01-16T04:37:57;2.50;;;1.40;;
23496;SDS011;11925;48.122;11.560;2024-01-16T04:40:25;3.15;;;1.50;;
23496;SDS011;11925;48.122;11.560;2024-01-16T04:42:55;3.38;;;1.55;;
23496;SDS011;11925;48.122;11.560;2024-01-16T04:45:24;3.47;;;1.35;;
23496;SDS011;11925;48.122;11.560;2024-01-16T04:47:52;3.22;;;1.50;;
23496;SDS011;11925;48.122;11.560;2024-01-16T04:50:21;2.55;;;1.45;;
23496;SDS011;11925;48.122;11.560;2024-01-16T04:52:50;3.60;;;1.40;;
23496;SDS011;11925;48.122;11.560;2024-01-16T04:55:20;4.10;;;1.55;;
23496;SDS011;11925;48.122;11.560;2024-01-16T04:57:49;3.60;;;1.67;;
23496;SDS011;11925;48.122;11.560;2024-01-16T05:00:19;4.22;;;1.70;;
23496;SDS011;11925;48.122;11.560;2024-01-16T05:02:47;3.65;;;2.05;;
23496;SDS011;11925;48.122;11.560;2024-01-16T05:05:18;7.00;;;2.72;;
23496;SDS011;11925;48.122;11.560;2024-01-16T05:07:46;8.60;;;3.30;;
23496;SDS011;11925;48.122;11.560;2024-01-16T05:10:15;7.55;;;3.33;;
23496;SDS011;11925;48.122;11.560;2024-01-16T05:12:43;6.55;;;2.80;;
23496;SDS011;11925;48.122;11.560;2024-01-16T05:15:12;6.88;;;2.92;;
23496;SDS011;11925;48.122;11.560;2024-01-16T05:17:42;4.43;;;2.50;;
23496;SDS011;11925;48.122;11.560;2024-01-16T05:20:11;5.03;;;2.20;;
23496;SDS011;11925;48.122;11.560;2024-01-16T05:22:40;5.00;;;1.77;;
23496;SDS011;11925;48.122;11.560;2024-01-16T05:25:09;5.07;;;1.75;;
23496;SDS011;11925;48.122;11.560;2024-01-16T05:27:38;4.65;;;1.73;;
23496;SDS011;11925;48.122;11.560;2024-01-16T05:30:07;3.97;;;1.70;;
23496;SDS011;11925;48.122;11.560;2024-01-16T05:32:37;4.88;;;1.83;;
23496;SDS011;11925;48.122;11.560;2024-01-16T05:35:09;3.80;;;1.70;;
23496;SDS011;11925;48.122;11.560;2024-01-16T05:37:38;3.13;;;1.40;;
23496;SDS011;11925;48.122;11.560;2024-01-16T05:40:07;2.42;;;1.45;;
23496;SDS011;11925;48.122;11.560;2024-01-16T05:42:37;3.00;;;1.50;;
23496;SDS011;11925;48.122;11.560;2024-01-16T05:45:06;5.13;;;2.00;;
23496;SDS011;11925;48.122;11.560;2024-01-16T05:47:35;2.45;;;1.30;;
23496;SDS011;11925;48.122;11.560;2024-01-16T05:50:04;3.33;;;1.40;;
23496;SDS011;11925;48.122;11.560;2024-01-16T05:52:35;2.40;;;1.42;;
23496;SDS011;11925;48.122;11.560;2024-01-16T05:55:05;2.45;;;1.30;;
23496;SDS011;11925;48.122;11.560;2024-01-16T05:57:35;3.20;;;1.45;;
23496;SDS011;11925;48.122;11.560;2024-01-16T06:00:04;3.45;;;2.15;;
23496;SDS011;11925;48.122;11.560;2024-01-16T06:02:33;2.85;;;1.60;;
23496;SDS011;11925;48.122;11.560;2024-01-16T06:05:02;2.53;;;1.40;;
23496;SDS011;11925;48.122;11.560;2024-01-16T06:07:30;3.53;;;1.40;;
23496;SDS011;11925;48.122;11.560;2024-01-16T06:10:00;4.63;;;1.30;;
23496;SDS011;11925;48.122;11.560;2024-01-16T06:12:32;4.55;;;1.55;;
23496;SDS011;11925;48.122;11.560;2024-01-16T06:15:00;4.43;;;1.70;;
23496;SDS011;11925;48.122;11.560;2024-01-16T06:17:29;3.35;;;1.63;;
23496;SDS011;11925;48.122;11.560;2024-01-16T06:19:58;3.13;;;1.50;;
23496;SDS011;11925;48.122;11.560;2024-01-16T06:22:26;2.45;;;1.20;;
23496;SDS011;11925;48.122;11.560;2024-01-16T06:24:55;3.65;;;1.55;;
23496;SDS011;11925;48.122;11.560;2024-01-16T06:27:25;3.63;;;1.63;;
23496;SDS011;11925;48.122;11.560;2024-01-16T06:29:53;3.45;;;1.52;;
23496;SDS011;11925;48.122;11.560;2024-01-16T06:32:22;4.10;;;1.58;;
23496;SDS011;11925;48.122;11.560;2024-01-16T06:34:50;4.95;;;1.60;;
23496;SDS011;11925;48.122;11.560;2024-01-16T06:37:19;4.13;;;1.80;;
23496;SDS011;11925;48.122;11.560;2024-01-16T06:39:47;3.30;;;1.50;;
23496;SDS011;11925;48.122;11.560;2024-01-16T06:42:16;3.85;;;1.30;;
23496;SDS011;11925;48.122;11.560;2024-01-16T06:44:46;3.03;;;1.40;;
23496;SDS011;11925;48.122;11.560;2024-01-16T06:47:14;3.50;;;1.90;;
23496;SDS011;11925;48.122;11.560;2024-01-16T06:49:43;2.53;;;1.52;;
23496;SDS011;11925;48.122;11.560;2024-01-16T06:52:11;3.40;;;1.50;;
23496;SDS011;11925;48.122;11.560;2024-01-16T06:54:40;3.53;;;1.70;;
23496;SDS011;11925;48.122;11.560;2024-01-16T06:57:08;4.68;;;1.80;;
23496;SDS011;11925;48.122;11.560;2024-01-16T06:59:37;2.58;;;1.50;;
23496;SDS011;11925;48.122;11.560;2024-01-16T07:02:07;2.55;;;1.30;;
23496;SDS011;11925;48.122;11.560;2024-01-16T07:04:35;6.82;;;2.08;;
23496;SDS011;11925;48.122;11.560;2024-01-16T07:07:04;3.00;;;1.50;;
23496;SDS011;11925;48.122;11.560;2024-01-16T07:09:32;4.93;;;2.10;;
23496;SDS011;11925;48.122;11.560;2024-01-16T07:12:01;4.03;;;1.60;;
23496;SDS011;11925;48.122;11.560;2024-01-16T07:14:31;4.40;;;1.60;;
23496;SDS011;11925;48.122;11.560;2024-01-16T07:17:00;4.35;;;3.20;;
23496;SDS011;11925;48.122;11.560;2024-01-16T07:19:30;5.15;;;2.42;;
23496;SDS011;11925;48.122;11.560;2024-01-16T07:21:59;3.85;;;2.08;;
23496;SDS011;11925;48.122;11.560;2024-01-16T07:24:28;3.25;;;1.95;;
23496;SDS011;11925;48.122;11.560;2024-01-16T07:26:56;3.28;;;1.55;;
23496;SDS011;11925;48.122;11.560;2024-01-16T07:29:25;7.10;;;2.90;;
23496;SDS011;11925;48.122;11.560;2024-01-16T07:31:53;3.67;;;1.60;;
23496;SDS011;11925;48.122;11.560;2024-01-16T07:34:22;3.20;;;1.48;;
23496;SDS011;11925;48.122;11.560;2024-01-16T07:36:53;3.15;;;1.33;;
23496;SDS011;11925;48.122;11.560;2024-01-16T07:39:22;3.17;;;1.65;;
23496;SDS011;11925;48.122;11.560;2024-01-16T07:41:50;2.13;;;1.35;;
23496;SDS011;11925;48.122;11.560;2024-01-16T07:44:19;3.85;;;1.70;;
23496;SDS011;11925;48.122;11.560;2024-01-16T07:46:46;3.53;;;1.70;;
23496;SDS011;11925;48.122;11.560;2024-01-16T07:49:15;4.15;;;1.70;;
23496;SDS011;11925;48.122;11.560;2024-01-16T07:51:43;5.68;;;2.00;;
23496;SDS011;11925;48.122;11.560;2024-01-16T07:54:13;5.60;;;2.00;;
23496;SDS011;11925;48.122;11.560;2024-01-16T07:56:42;3.85;;;1.92;;
23496;SDS011;11925;48.122;11.560;2024-01-16T07:59:10;4.35;;;1.88;;
23496;SDS011;11925;48.122;11.560;2024-01-16T08:01:39;4.30;;;2.40;;
23496;SDS011;11925;48.122;11.560;2024-01-16T08:04:07;3.55;;;1.80;;
23496;SDS011;11925;48.122;11.560;2024-01-16T08:06:36;5.45;;;2.17;;
23496;SDS011;11925;48.122;11.560;2024-01-16T08:09:05;3.65;;;1.90;;
23496;SDS011;11925;48.122;11.560;2024-01-16T08:11:35;4.38;;;2.00;;
23496;SDS011;11925;48.122;11.560;2024-01-16T08:14:03;3.97;;;2.13;;
23496;SDS011;11925;48.122;11.560;2024-01-16T08:16:32;5.10;;;2.10;;
23496;SDS011;11925;48.122;11.560;2024-01-16T08:19:00;16.13;;;6.10;;
23496;SDS011;11925;48.122;11.560;2024-01-16T08:21:30;7.07;;;3.28;;
23496;SDS011;11925;48.122;11.560;2024-01-16T08:23:58;4.97;;;2.83;;
23496;SDS011;11925;48.122;11.560;2024-01-16T08:26:27;5.63;;;2.63;;
23496;SDS011;11925;48.122;11.560;2024-01-16T08:28:57;4.13;;;2.40;;
23496;SDS011;11925;48.122;11.560;2024-01-16T08:31:26;6.35;;;2.90;;
23496;SDS011;11925;48.122;11.560;2024-01-16T08:33:54;5.68;;;2.80;;
23496;SDS011;11925;48.122;11.560;2024-01-16T08:36:24;5.85;;;2.63;;
23496;SDS011;11925;48.122;11.560;2024-01-16T08:38:52;6.22;;;3.00;;
23496;SDS011;11925;48.122;11.560;2024-01-16T08:41:22;3.92;;;2.25;;
23496;SDS011;11925;48.122;11.560;2024-01-16T08:43:50;6.10;;;2.65;;
23496;SDS011;11925;48.122;11.560;2024-01-16T08:46:21;3.90;;;2.20;;
23496;SDS011;11925;48.122;11.560;2024-01-16T08:48:49;4.45;;;2.65;;
23496;SDS011;11925;48.122;11.560;2024-01-16T08:51:18;4.72;;;2.28;;
23496;SDS011;11925;48.122;11.560;2024-01-16T08:53:47;4.95;;;2.38;;
23496;SDS011;11925;48.122;11.560;2024-01-16T08:56:15;4.47;;;2.53;;
23496;SDS011;11925;48.122;11.560;2024-01-16T08:58:44;5.07;;;2.15;;
23496;SDS011;11925;48.122;11.560;2024-01-16T09:01:13;5.60;;;2.40;;
23496;SDS011;11925;48.122;11.560;2024-01-16T09:03:43;5.35;;;2.30;;
23496;SDS011;11925;48.122;11.560;2024-01-16T09:06:11;3.80;;;2.20;;
23496;SDS011;11925;48.122;11.560;2024-01-16T09:08:40;5.78;;;2.00;;
23496;SDS011;11925;48.122;11.560;2024-01-16T09:11:08;6.13;;;2.60;;
23496;SDS011;11925;48.122;11.560;2024-01-16T09:13:38;6.13;;;2.70;;
23496;SDS011;11925;48.122;11.560;2024-01-16T09:16:06;6.75;;;2.47;;
23496;SDS011;11925;48.122;11.560;2024-01-16T09:18:34;9.02;;;2.65;;
23496;SDS011;11925;48.122;11.560;2024-01-16T09:21:05;5.55;;;2.75;;
23496;SDS011;11925;48.122;11.560;2024-01-16T09:23:33;4.80;;;2.70;;
23496;SDS011;11925;48.122;11.560;2024-01-16T09:26:02;6.15;;;2.88;;
23496;SDS011;11925;48.122;11.560;2024-01-16T09:28:30;5.35;;;2.70;;
23496;SDS011;11925;48.122;11.560;2024-01-16T09:30:59;6.40;;;2.58;;
23496;SDS011;11925;48.122;11.560;2024-01-16T09:33:28;5.78;;;2.85;;
23496;SDS011;11925;48.122;11.560;2024-01-16T09:35:56;5.88;;;2.80;;
23496;SDS011;11925;48.122;11.560;2024-01-16T09:38:26;4.88;;;2.70;;
23496;SDS011;11925;48.122;11.560;2024-01-16T09:40:54;4.55;;;2.30;;
23496;SDS011;11925;48.122;11.560;2024-01-16T09:43:26;4.80;;;2.38;;
23496;SDS011;11925;48.122;11.560;2024-01-16T09:45:55;6.90;;;2.60;;
23496;SDS011;11925;48.122;11.560;2024-01-16T09:48:28;5.13;;;2.67;;
23496;SDS011;11925;48.122;11.560;2024-01-16T09:50:59;3.93;;;2.33;;
23496;SDS011;11925;48.122;11.560;2024-01-16T09:53:29;6.57;;;2.53;;
23496;SDS011;11925;48.122;11.560;2024-01-16T09:55:58;6.70;;;2.10;;
23496;SDS011;11925;48.122;11.560;2024-01-16T09:58:30;5.47;;;2.83;;
23496;SDS011;11925;48.122;11.560;2024-01-16T10:01:02;6.78;;;2.50;;
23496;SDS011;11925;48.122;11.560;2024-01-16T10:03:31;4.65;;;2.60;;
23496;SDS011;11925;48.122;11.560;2024-01-16T10:06:03;4.80;;;2.90;;
23496;SDS011;11925;48.122;11.560;2024-01-16T10:08:35;6.72;;;2.33;;
23496;SDS011;11925;48.122;11.560;2024-01-16T10:11:06;4.53;;;2.40;;
23496;SDS011;11925;48.122;11.560;2024-01-16T10:13:35;5.40;;;2.17;;
23496;SDS011;11925;48.122;11.560;2024-01-16T10:16:05;4.35;;;2.17;;
23496;SDS011;11925;48.122;11.560;2024-01-16T10:18:33;5.32;;;2.28;;
23496;SDS011;11925;48.122;11.560;2024-01-16T10:21:04;5.97;;;3.08;;
23496;SDS011;11925;48.122;11.560;2024-01-16T10:23:48;6.05;;;3.13;;
23496;SDS011;11925;48.122;11.560;2024-01-16T10:26:17;4.55;;;2.22;;
23496;SDS011;11925;48.122;11.560;2024-01-16T10:28:46;7.85;;;2.63;;
23496;SDS011;11925;48.122;11.560;2024-01-16T10:31:14;6.47;;;2.75;;
23496;SDS011;11925;48.122;11.560;2024-01-16T10:33:43;7.20;;;2.70;;
23496;SDS011;11925;48.122;11.560;2024-01-16T10:36:12;5.22;;;2.88;;
23496;SDS011;11925;48.122;11.560;2024-01-16T10:38:43;4.22;;;2.10;;
23496;SDS011;11925;48.122;11.560;2024-01-16T10:41:14;6.60;;;2.35;;
23496;SDS011;11925;48.122;11.560;2024-01-16T10:43:44;3.97;;;2.30;;
23496;SDS011;11925;48.122;11.560;2024-01-16T10:46:13;4.53;;;2.25;;
23496;SDS011;11925;48.122;11.560;2024-01-16T10:48:44;4.60;;;2.40;;
23496;SDS011;11925;48.122;11.560;2024-01-16T10:51:26;4.75;;;2.30;;
23496;SDS011;11925;48.122;11.560;2024-01-16T10:53:56;5.57;;;2.15;;
23496;SDS011;11925;48.122;11.560;2024-01-16T10:56:28;4.95;;;2.50;;
23496;SDS011;11925;48.122;11.560;2024-01-16T10:58:57;6.07;;;2.55;;
23496;SDS011;11925;48.122;11.560;2024-01-16T11:01:34;5.85;;;2.15;;
23496;SDS011;11925;48.122;11.560;2024-01-16T11:04:04;5.75;;;2.50;;
23496;SDS011;11925;48.122;11.560;2024-01-16T11:06:34;3.90;;;1.77;;
23496;SDS011;11925;48.122;11.560;2024-01-16T11:09:03;3.15;;;1.70;;
23496;SDS011;11925;48.122;11.560;2024-01-16T11:11:34;5.78;;;2.63;;
23496;SDS011;11925;48.122;11.560;2024-01-16T11:14:05;5.05;;;2.38;;
23496;SDS011;11925;48.122;11.560;2024-01-16T11:16:34;5.45;;;2.40;;
23496;SDS011;11925;48.122;11.560;2024-01-16T11:19:04;5.38;;;2.00;;
23496;SDS011;11925;48.122;11.560;2024-01-16T11:21:55;4.95;;;2.17;;
23496;SDS011;11925;48.122;11.560;2024-01-16T11:24:24;3.55;;;1.83;;
23496;SDS011;11925;48.122;11.560;2024-01-16T11:26:54;4.47;;;1.80;;
23496;SDS011;11925;48.122;11.560;2024-01-16T11:29:35;3.05;;;1.55;;
23496;SDS011;11925;48.122;11.560;2024-01-16T11:32:05;5.15;;;1.88;;
23496;SDS011;11925;48.122;11.560;2024-01-16T11:34:53;3.47;;;1.65;;
23496;SDS011;11925;48.122;11.560;2024-01-16T11:37:26;4.35;;;1.50;;
23496;SDS011;11925;48.122;11.560;2024-01-16T11:42:56;2.85;;;1.38;;
23496;SDS011;11925;48.122;11.560;2024-01-16T11:48:15;3.92;;;1.60;;
23496;SDS011;11925;48.122;11.560;2024-01-16T11:50:44;3.55;;;1.45;;
23496;SDS011;11925;48.122;11.560;2024-01-16T11:53:35;3.53;;;1.40;;
23496;SDS011;11925;48.122;11.560;2024-01-16T11:56:20;3.70;;;1.33;;
23496;SDS011;11925;48.122;11.560;2024-01-16T11:59:25;3.15;;;1.52;;
23496;SDS011;11925;48.122;11.560;2024-01-16T12:02:09;4.20;;;1.20;;
23496;SDS011;11925;48.122;11.560;2024-01-16T12:04:42;2.45;;;1.20;;
23496;SDS011;11925;48.122;11.560;2024-01-16T12:07:10;2.85;;;1.13;;
23496;SDS011;11925;48.122;11.560;2024-01-16T12:09:39;2.97;;;1.25;;
23496;SDS011;11925;48.122;11.560;2024-01-16T12:12:07;3.42;;;1.17;;
23496;SDS011;11925;48.122;11.560;2024-01-16T12:14:37;2.40;;;1.20;;
23496;SDS011;11925;48.122;11.560;2024-01-16T12:17:09;2.10;;;1.25;;
23496;SDS011;11925;48.122;11.560;2024-01-16T12:19:39;4.53;;;1.50;;
23496;SDS011;11925;48.122;11.560;2024-01-16T12:22:10;4.13;;;1.55;;
23496;SDS011;11925;48.122;11.560;2024-01-16T12:24:41;3.42;;;1.33;;
23496;SDS011;11925;48.122;11.560;2024-01-16T12:27:09;4.05;;;1.45;;
23496;SDS011;11925;48.122;11.560;2024-01-16T12:29:39;2.92;;;1.08;;
23496;SDS011;11925;48.122;11.560;2024-01-16T12:32:08;2.92;;;1.10;;
23496;SDS011;11925;48.122;11.560;2024-01-16T12:34:44;1.92;;;0.95;;
23496;SDS011;11925;48.122;11.560;2024-01-16T12:37:15;1.88;;;1.13;;
23496;SDS011;11925;48.122;11.560;2024-01-16T12:39:43;3.08;;;1.10;;
23496;SDS011;11925;48.122;11.560;2024-01-16T12:42:12;3.05;;;1.10;;
23496;SDS011;11925;48.122;11.560;2024-01-16T12:44:42;3.85;;;1.17;;
23496;SDS011;11925;48.122;11.560;2024-01-16T12:47:14;2.78;;;1.05;;
23496;SDS011;11925;48.122;11.560;2024-01-16T12:49:45;1.83;;;1.00;;
23496;SDS011;11925;48.122;11.560;2024-01-16T12:52:14;2.83;;;1.20;;
23496;SDS011;11925;48.122;11.560;2024-01-16T12:54:45;1.42;;;1.00;;
23496;SDS011;11925;48.122;11.560;2024-01-16T12:57:17;2.45;;;0.90;;
23496;SDS011;11925;48.122;11.560;2024-01-16T12:59:49;4.50;;;1.10;;
23496;SDS011;11925;48.122;11.560;2024-01-16T13:02:21;2.25;;;1.10;;
23496;SDS011;11925;48.122;11.560;2024-01-16T13:04:57;2.30;;;1.10;;
23496;SDS011;11925;48.122;11.560;2024-01-16T13:07:27;2.42;;;1.05;;
23496;SDS011;11925;48.122;11.560;2024-01-16T13:10:08;3.22;;;1.02;;
23496;SDS011;11925;48.122;11.560;2024-01-16T13:12:38;2.75;;;1.10;;
23496;SDS011;11925;48.122;11.560;2024-01-16T13:15:09;4.15;;;1.10;;
23496;SDS011;11925;48.122;11.560;2024-01-16T13:17:38;3.92;;;1.90;;
23496;SDS011;11925;48.122;11.560;2024-01-16T13:20:07;4.40;;;1.02;;
23496;SDS011;11925;48.122;11.560;2024-01-16T13:22:37;2.53;;;0.98;;
23496;SDS011;11925;48.122;11.560;2024-01-16T13:25:13;2.10;;;0.98;;
23496;SDS011;11925;48.122;11.560;2024-01-16T13:27:42;4.20;;;0.77;;
23496;SDS011;11925;48.122;11.560;2024-01-16T13:30:12;2.88;;;1.30;;
23496;SDS011;11925;48.122;11.560;2024-01-16T13:32:41;2.07;;;1.00;;
23496;SDS011;11925;48.122;11.560;2024-01-16T13:35:10;3.30;;;0.93;;
23496;SDS011;11925;48.122;11.560;2024-01-16T13:37:39;2.47;;;1.00;;
23496;SDS011;11925;48.122;11.560;2024-01-16T13:40:08;3.42;;;0.80;;
23496;SDS011;11925;48.122;11.560;2024-01-16T13:42:38;2.83;;;1.10;;
23496;SDS011;11925;48.122;11.560;2024-01-16T13:45:07;2.92;;;1.17;;
23496;SDS011;11925;48.122;11.560;2024-01-16T13:47:37;3.10;;;1.00;;
23496;SDS011;11925;48.122;11.560;2024-01-16T13:50:08;2.75;;;0.75;;
23496;SDS011;11925;48.122;11.560;2024-01-16T13:52:37;1.10;;;0.57;;
23496;SDS011;11925;48.122;11.560;2024-01-16T13:55:07;1.83;;;0.95;;
23496;SDS011;11925;48.122;11.560;2024-01-16T13:57:35;2.00;;;0.70;;
23496;SDS011;11925;48.122;11.560;2024-01-16T14:00:05;1.05;;;0.68;;
23496;SDS011;11925;48.122;11.560;2024-01-16T14:02:38;1.75;;;0.98;;
23496;SDS011;11925;48.122;11.560;2024-01-16T14:05:07;3.65;;;1.00;;
23496;SDS011;11925;48.122;11.560;2024-01-16T14:07:37;3.33;;;1.10;;
23496;SDS011;11925;48.122;11.560;2024-01-16T14:10:07;1.70;;;1.00;;
23496;SDS011;11925;48.122;11.560;2024-01-16T14:12:38;5.78;;;0.90;;
23496;SDS011;11925;48.122;11.560;2024-01-16T14:15:09;2.23;;;1.00;;
23496;SDS011;11925;48.122;11.560;2024-01-16T14:17:47;3.25;;;1.33;;
23496;SDS011;11925;48.122;11.560;2024-01-16T14:20:17;5.05;;;1.05;;
23496;SDS011;11925;48.122;11.560;2024-01-16T14:22:53;1.80;;;1.10;;
23496;SDS011;11925;48.122;11.560;2024-01-16T14:25:22;3.28;;;0.95;;
23496;SDS011;11925;48.122;11.560;2024-01-16T14:27:55;3.17;;;1.08;;
23496;SDS011;11925;48.122;11.560;2024-01-16T14:30:26;2.67;;;1.10;;
23496;SDS011;11925;48.122;11.560;2024-01-16T14:32:56;2.67;;;1.10;;
23496;SDS011;11925;48.122;11.560;2024-01-16T14:35:25;3.10;;;1.00;;
23496;SDS011;11925;48.122;11.560;2024-01-16T14:37:53;3.22;;;1.00;;
23496;SDS011;11925;48.122;11.560;2024-01-16T14:40:22;4.05;;;1.10;;
23496;SDS011;11925;48.122;11.560;2024-01-16T14:42:52;3.22;;;1.25;;
23496;SDS011;11925;48.122;11.560;2024-01-16T14:45:23;3.85;;;1.35;;
23496;SDS011;11925;48.122;11.560;2024-01-16T14:47:53;3.25;;;1.50;;
23496;SDS011;11925;48.122;11.560;2024-01-16T14:50:23;2.65;;;1.27;;
23496;SDS011;11925;48.122;11.560;2024-01-16T14:52:52;3.55;;;1.80;;
23496;SDS011;11925;48.122;11.560;2024-01-16T14:55:20;3.65;;;1.80;;
23496;SDS011;11925;48.122;11.560;2024-01-16T14:57:49;4.30;;;1.95;;